sensor_id;sensor_type;location;lat;lon;timestamp;P1;durP1;ratioP1;P2;durP2;ratioP2
70675;SDS011;59069;52.242;20.900;2024-02-21T00:00:53;19.47;;;3.23;;
70675;SDS011;59069;52.242;20.900;2024-02-21T00:03:18;17.07;;;3.57;;
70675;SDS011;59069;52.242;20.900;2024-02-21T00:05:44;9.90;;;2.67;;
70675;SDS011;59069;52.242;20.900;2024-02-21T00:08:10;11.73;;;2.97;;
70675;SDS011;59069;52.242;20.900;2024-02-21T00:10:35;15.57;;;3.55;;
70675;SDS011;59069;52.242;20.900;2024-02-21T00:13:01;10.17;;;3.50;;
70675;SDS011;59069;52.242;20.900;2024-02-21T00:15:26;11.97;;;3.33;;
70675;SDS011;59069;52.242;20.900;2024-02-21T00:17:52;17.03;;;3.63;;
70675;SDS011;59069;52.242;20.900;2024-02-21T00:20:17;15.77;;;3.17;;
70675;SDS011;59069;52.242;20.900;2024-02-21T00:22:43;11.93;;;3.10;;
70675;SDS011;59069;52.242;20.900;2024-02-21T00:25:09;12.43;;;2.95;;
70675;SDS011;59069;52.242;20.900;2024-02-21T00:27:34;13.37;;;2.97;;
70675;SDS011;59069;52.242;20.900;2024-02-21T00:30:00;13.57;;;3.10;;
70675;SDS011;59069;52.242;20.900;2024-02-21T00:32:25;16.20;;;3.30;;
70675;SDS011;59069;52.242;20.900;2024-02-21T00:34:50;13.07;;;3.30;;
70675;SDS011;59069;52.242;20.900;2024-02-21T00:37:16;12.67;;;3.60;;
70675;SDS011;59069;52.242;20.900;2024-02-21T00:39:41;13.63;;;3.47;;
70675;SDS011;59069;52.242;20.900;2024-02-21T00:42:07;15.77;;;3.25;;
70675;SDS011;59069;52.242;20.900;2024-02-21T00:44:33;19.50;;;4.00;;
70675;SDS011;59069;52.242;20.900;2024-02-21T00:46:58;19.40;;;3.80;;
70675;SDS011;59069;52.242;20.900;2024-02-21T00:49:23;13.37;;;3.73;;
70675;SDS011;59069;52.242;20.900;2024-02-21T00:51:49;16.83;;;3.90;;
70675;SDS011;59069;52.242;20.900;2024-02-21T00:54:14;18.03;;;4.40;;
70675;SDS011;59069;52.242;20.900;2024-02-21T00:56:41;13.27;;;3.60;;
70675;SDS011;59069;52.242;20.900;2024-02-21T00:59:06;17.10;;;4.43;;
70675;SDS011;59069;52.242;20.900;2024-02-21T01:01:31;11.77;;;3.80;;
70675;SDS011;59069;52.242;20.900;2024-02-21T01:03:57;15.63;;;3.95;;
70675;SDS011;59069;52.242;20.900;2024-02-21T01:06:22;15.73;;;4.20;;
70675;SDS011;59069;52.242;20.900;2024-02-21T01:08:48;15.00;;;3.90;;
70675;SDS011;59069;52.242;20.900;2024-02-21T01:11:14;11.50;;;3.50;;
70675;SDS011;59069;52.242;20.900;2024-02-21T01:13:40;16.45;;;4.10;;
70675;SDS011;59069;52.242;20.900;2024-02-21T01:16:06;14.57;;;3.60;;
70675;SDS011;59069;52.242;20.900;2024-02-21T01:18:32;11.02;;;3.30;;
70675;SDS011;59069;52.242;20.900;2024-02-21T01:20:58;16.60;;;4.13;;
70675;SDS011;59069;52.242;20.900;2024-02-21T01:23:24;15.43;;;3.88;;
70675;SDS011;59069;52.242;20.900;2024-02-21T01:25:49;14.10;;;3.73;;
70675;SDS011;59069;52.242;20.900;2024-02-21T01:28:15;14.20;;;4.10;;
70675;SDS011;59069;52.242;20.900;2024-02-21T01:30:40;14.27;;;3.83;;
70675;SDS011;59069;52.242;20.900;2024-02-21T01:33:06;13.30;;;3.50;;
70675;SDS011;59069;52.242;20.900;2024-02-21T01:35:31;14.57;;;4.20;;
70675;SDS011;59069;52.242;20.900;2024-02-21T01:37:56;16.33;;;4.33;;
70675;SDS011;59069;52.242;20.900;2024-02-21T01:40:22;16.87;;;4.37;;
70675;SDS011;59069;52.242;20.900;2024-02-21T01:42:47;14.82;;;3.97;;
70675;SDS011;59069;52.242;20.900;2024-02-21T01:45:13;14.27;;;4.23;;
70675;SDS011;59069;52.242;20.900;2024-02-21T01:47:39;16.77;;;4.40;;
70675;SDS011;59069;52.242;20.900;2024-02-21T01:50:05;16.85;;;4.43;;
70675;SDS011;59069;52.242;20.900;2024-02-21T01:52:30;10.57;;;3.80;;
70675;SDS011;59069;52.242;20.900;2024-02-21T01:54:57;14.82;;;4.20;;
70675;SDS011;59069;52.242;20.900;2024-02-21T01:57:23;17.05;;;4.80;;
70675;SDS011;59069;52.242;20.900;2024-02-21T01:59:48;16.83;;;4.40;;
70675;SDS011;59069;52.242;20.900;2024-02-21T02:02:14;17.73;;;4.90;;
70675;SDS011;59069;52.242;20.900;2024-02-21T02:04:41;17.45;;;4.63;;
70675;SDS011;59069;52.242;20.900;2024-02-21T02:07:07;13.67;;;4.03;;
70675;SDS011;59069;52.242;20.900;2024-02-21T02:09:33;16.13;;;4.35;;
70675;SDS011;59069;52.242;20.900;2024-02-21T02:11:58;14.20;;;4.50;;
70675;SDS011;59069;52.242;20.900;2024-02-21T02:14:25;17.85;;;4.78;;
70675;SDS011;59069;52.242;20.900;2024-02-21T02:16:50;16.73;;;4.85;;
70675;SDS011;59069;52.242;20.900;2024-02-21T02:19:16;18.87;;;5.10;;
70675;SDS011;59069;52.242;20.900;2024-02-21T02:21:42;15.33;;;4.90;;
70675;SDS011;59069;52.242;20.900;2024-02-21T02:24:13;15.07;;;4.47;;
70675;SDS011;59069;52.242;20.900;2024-02-21T02:26:39;17.42;;;4.78;;
70675;SDS011;59069;52.242;20.900;2024-02-21T02:29:05;15.27;;;4.83;;
70675;SDS011;59069;52.242;20.900;2024-02-21T02:31:30;14.15;;;4.28;;
70675;SDS011;59069;52.242;20.900;2024-02-21T02:33:56;14.47;;;4.40;;
70675;SDS011;59069;52.242;20.900;2024-02-21T02:36:21;19.87;;;4.70;;
70675;SDS011;59069;52.242;20.900;2024-02-21T02:38:46;12.83;;;4.50;;
70675;SDS011;59069;52.242;20.900;2024-02-21T02:41:12;17.30;;;4.73;;
70675;SDS011;59069;52.242;20.900;2024-02-21T02:43:37;15.68;;;3.97;;
70675;SDS011;59069;52.242;20.900;2024-02-21T02:46:02;14.87;;;4.20;;
70675;SDS011;59069;52.242;20.900;2024-02-21T02:48:28;18.10;;;4.70;;
70675;SDS011;59069;52.242;20.900;2024-02-21T02:50:54;13.47;;;4.30;;
70675;SDS011;59069;52.242;20.900;2024-02-21T02:53:20;17.17;;;5.45;;
70675;SDS011;59069;52.242;20.900;2024-02-21T02:55:45;18.23;;;5.53;;
70675;SDS011;59069;52.242;20.900;2024-02-21T02:58:10;20.10;;;5.27;;
70675;SDS011;59069;52.242;20.900;2024-02-21T03:00:36;17.73;;;5.40;;
70675;SDS011;59069;52.242;20.900;2024-02-21T03:03:01;16.88;;;5.72;;
70675;SDS011;59069;52.242;20.900;2024-02-21T03:05:30;20.10;;;6.15;;
70675;SDS011;59069;52.242;20.900;2024-02-21T03:07:55;15.60;;;4.97;;
70675;SDS011;59069;52.242;20.900;2024-02-21T03:10:21;14.27;;;4.63;;
70675;SDS011;59069;52.242;20.900;2024-02-21T03:12:46;16.73;;;5.40;;
70675;SDS011;59069;52.242;20.900;2024-02-21T03:15:12;15.98;;;4.82;;
70675;SDS011;59069;52.242;20.900;2024-02-21T03:17:38;20.00;;;5.10;;
70675;SDS011;59069;52.242;20.900;2024-02-21T03:20:05;17.63;;;5.47;;
70675;SDS011;59069;52.242;20.900;2024-02-21T03:22:34;16.60;;;5.50;;
70675;SDS011;59069;52.242;20.900;2024-02-21T03:25:00;19.03;;;5.53;;
70675;SDS011;59069;52.242;20.900;2024-02-21T03:27:26;13.90;;;5.32;;
70675;SDS011;59069;52.242;20.900;2024-02-21T03:29:51;20.17;;;5.33;;
70675;SDS011;59069;52.242;20.900;2024-02-21T03:32:17;21.23;;;6.57;;
70675;SDS011;59069;52.242;20.900;2024-02-21T03:34:42;16.70;;;6.10;;
70675;SDS011;59069;52.242;20.900;2024-02-21T03:37:07;19.53;;;5.87;;
70675;SDS011;59069;52.242;20.900;2024-02-21T03:39:33;22.60;;;6.07;;
70675;SDS011;59069;52.242;20.900;2024-02-21T03:41:58;15.07;;;5.07;;
70675;SDS011;59069;52.242;20.900;2024-02-21T03:44:30;18.00;;;5.40;;
70675;SDS011;59069;52.242;20.900;2024-02-21T03:46:55;16.00;;;6.63;;
70675;SDS011;59069;52.242;20.900;2024-02-21T03:49:21;20.37;;;6.40;;
70675;SDS011;59069;52.242;20.900;2024-02-21T03:51:46;13.88;;;5.18;;
70675;SDS011;59069;52.242;20.900;2024-02-21T03:54:12;17.60;;;5.43;;
70675;SDS011;59069;52.242;20.900;2024-02-21T03:56:38;20.83;;;5.93;;
70675;SDS011;59069;52.242;20.900;2024-02-21T03:59:07;18.17;;;5.93;;
70675;SDS011;59069;52.242;20.900;2024-02-21T04:01:33;17.23;;;5.73;;
70675;SDS011;59069;52.242;20.900;2024-02-21T04:03:59;18.50;;;6.30;;
70675;SDS011;59069;52.242;20.900;2024-02-21T04:06:24;15.47;;;5.67;;
70675;SDS011;59069;52.242;20.900;2024-02-21T04:08:50;18.87;;;5.80;;
70675;SDS011;59069;52.242;20.900;2024-02-21T04:11:15;19.20;;;6.50;;
70675;SDS011;59069;52.242;20.900;2024-02-21T04:13:42;18.87;;;6.27;;
70675;SDS011;59069;52.242;20.900;2024-02-21T04:16:07;16.77;;;6.70;;
70675;SDS011;59069;52.242;20.900;2024-02-21T04:18:32;25.47;;;7.00;;
70675;SDS011;59069;52.242;20.900;2024-02-21T04:20:58;17.10;;;6.60;;
70675;SDS011;59069;52.242;20.900;2024-02-21T04:23:23;17.93;;;5.77;;
70675;SDS011;59069;52.242;20.900;2024-02-21T04:25:49;17.80;;;5.73;;
70675;SDS011;59069;52.242;20.900;2024-02-21T04:28:14;20.03;;;6.47;;
70675;SDS011;59069;52.242;20.900;2024-02-21T04:30:39;21.00;;;6.53;;
70675;SDS011;59069;52.242;20.900;2024-02-21T04:33:05;14.43;;;5.53;;
70675;SDS011;59069;52.242;20.900;2024-02-21T04:35:30;20.25;;;6.20;;
70675;SDS011;59069;52.242;20.900;2024-02-21T04:37:56;22.43;;;6.53;;
70675;SDS011;59069;52.242;20.900;2024-02-21T04:40:21;24.20;;;7.17;;
70675;SDS011;59069;52.242;20.900;2024-02-21T04:42:46;16.50;;;6.93;;
70675;SDS011;59069;52.242;20.900;2024-02-21T04:45:12;17.27;;;6.57;;
70675;SDS011;59069;52.242;20.900;2024-02-21T04:47:37;20.53;;;6.93;;
70675;SDS011;59069;52.242;20.900;2024-02-21T04:50:02;19.30;;;7.07;;
70675;SDS011;59069;52.242;20.900;2024-02-21T04:52:28;19.27;;;6.63;;
70675;SDS011;59069;52.242;20.900;2024-02-21T04:54:54;17.02;;;6.85;;
70675;SDS011;59069;52.242;20.900;2024-02-21T04:57:20;18.67;;;6.97;;
70675;SDS011;59069;52.242;20.900;2024-02-21T04:59:45;18.20;;;6.77;;
70675;SDS011;59069;52.242;20.900;2024-02-21T05:02:14;19.10;;;7.22;;
70675;SDS011;59069;52.242;20.900;2024-02-21T05:04:39;20.37;;;7.17;;
70675;SDS011;59069;52.242;20.900;2024-02-21T05:07:06;19.02;;;7.03;;
70675;SDS011;59069;52.242;20.900;2024-02-21T05:09:31;22.00;;;7.30;;
70675;SDS011;59069;52.242;20.900;2024-02-21T05:11:57;22.00;;;7.10;;
70675;SDS011;59069;52.242;20.900;2024-02-21T05:14:24;19.40;;;7.38;;
70675;SDS011;59069;52.242;20.900;2024-02-21T05:16:49;20.70;;;7.13;;
70675;SDS011;59069;52.242;20.900;2024-02-21T05:19:15;23.90;;;7.97;;
70675;SDS011;59069;52.242;20.900;2024-02-21T05:21:40;21.30;;;7.27;;
70675;SDS011;59069;52.242;20.900;2024-02-21T05:24:05;23.03;;;7.70;;
70675;SDS011;59069;52.242;20.900;2024-02-21T05:26:31;19.23;;;8.00;;
70675;SDS011;59069;52.242;20.900;2024-02-21T05:28:57;19.27;;;6.90;;
70675;SDS011;59069;52.242;20.900;2024-02-21T05:31:24;19.80;;;7.85;;
70675;SDS011;59069;52.242;20.900;2024-02-21T05:33:49;22.83;;;7.47;;
70675;SDS011;59069;52.242;20.900;2024-02-21T05:36:14;21.33;;;8.50;;
70675;SDS011;59069;52.242;20.900;2024-02-21T05:38:40;22.00;;;7.80;;
70675;SDS011;59069;52.242;20.900;2024-02-21T05:41:05;19.98;;;7.32;;
70675;SDS011;59069;52.242;20.900;2024-02-21T05:43:31;19.30;;;7.60;;
70675;SDS011;59069;52.242;20.900;2024-02-21T05:45:57;21.48;;;8.00;;
70675;SDS011;59069;52.242;20.900;2024-02-21T05:48:22;19.10;;;7.43;;
70675;SDS011;59069;52.242;20.900;2024-02-21T05:50:48;23.85;;;7.80;;
70675;SDS011;59069;52.242;20.900;2024-02-21T05:53:14;21.90;;;7.90;;
70675;SDS011;59069;52.242;20.900;2024-02-21T05:55:40;19.65;;;7.72;;
70675;SDS011;59069;52.242;20.900;2024-02-21T05:58:05;21.23;;;8.17;;
70675;SDS011;59069;52.242;20.900;2024-02-21T06:00:31;21.70;;;8.47;;
70675;SDS011;59069;52.242;20.900;2024-02-21T06:02:57;23.30;;;7.87;;
70675;SDS011;59069;52.242;20.900;2024-02-21T06:05:22;22.45;;;7.82;;
70675;SDS011;59069;52.242;20.900;2024-02-21T06:07:47;21.67;;;7.30;;
70675;SDS011;59069;52.242;20.900;2024-02-21T06:10:13;21.80;;;8.07;;
70675;SDS011;59069;52.242;20.900;2024-02-21T06:12:39;23.53;;;8.20;;
70675;SDS011;59069;52.242;20.900;2024-02-21T06:15:04;20.92;;;8.55;;
70675;SDS011;59069;52.242;20.900;2024-02-21T06:17:30;28.27;;;8.33;;
70675;SDS011;59069;52.242;20.900;2024-02-21T06:19:55;27.90;;;8.50;;
70675;SDS011;59069;52.242;20.900;2024-02-21T06:22:21;22.17;;;8.27;;
70675;SDS011;59069;52.242;20.900;2024-02-21T06:24:46;20.53;;;7.90;;
70675;SDS011;59069;52.242;20.900;2024-02-21T06:27:11;23.13;;;8.53;;
70675;SDS011;59069;52.242;20.900;2024-02-21T06:29:37;20.67;;;9.00;;
70675;SDS011;59069;52.242;20.900;2024-02-21T06:32:02;24.30;;;9.00;;
70675;SDS011;59069;52.242;20.900;2024-02-21T06:34:28;23.42;;;9.07;;
70675;SDS011;59069;52.242;20.900;2024-02-21T06:36:53;26.00;;;8.90;;
70675;SDS011;59069;52.242;20.900;2024-02-21T06:39:19;23.37;;;9.33;;
70675;SDS011;59069;52.242;20.900;2024-02-21T06:41:44;25.10;;;9.35;;
70675;SDS011;59069;52.242;20.900;2024-02-21T06:44:13;25.40;;;9.47;;
70675;SDS011;59069;52.242;20.900;2024-02-21T06:46:38;24.75;;;8.77;;
70675;SDS011;59069;52.242;20.900;2024-02-21T06:49:03;25.87;;;9.23;;
70675;SDS011;59069;52.242;20.900;2024-02-21T06:51:29;25.83;;;9.60;;
70675;SDS011;59069;52.242;20.900;2024-02-21T06:53:54;32.27;;;9.23;;
70675;SDS011;59069;52.242;20.900;2024-02-21T06:56:20;23.92;;;9.02;;
70675;SDS011;59069;52.242;20.900;2024-02-21T06:58:51;25.65;;;8.60;;
70675;SDS011;59069;52.242;20.900;2024-02-21T07:01:17;21.57;;;8.63;;
70675;SDS011;59069;52.242;20.900;2024-02-21T07:03:42;23.73;;;8.70;;
70675;SDS011;59069;52.242;20.900;2024-02-21T07:06:08;23.17;;;9.07;;
70675;SDS011;59069;52.242;20.900;2024-02-21T07:08:33;26.47;;;9.10;;
70675;SDS011;59069;52.242;20.900;2024-02-21T07:10:58;23.80;;;8.47;;
70675;SDS011;59069;52.242;20.900;2024-02-21T07:13:24;24.40;;;8.70;;
70675;SDS011;59069;52.242;20.900;2024-02-21T07:15:49;20.00;;;8.77;;
70675;SDS011;59069;52.242;20.900;2024-02-21T07:18:15;26.45;;;8.82;;
70675;SDS011;59069;52.242;20.900;2024-02-21T07:20:41;25.08;;;8.95;;
70675;SDS011;59069;52.242;20.900;2024-02-21T07:23:07;25.57;;;9.10;;
70675;SDS011;59069;52.242;20.900;2024-02-21T07:25:33;25.20;;;9.10;;
70675;SDS011;59069;52.242;20.900;2024-02-21T07:27:58;28.73;;;9.67;;
70675;SDS011;59069;52.242;20.900;2024-02-21T07:30:23;26.77;;;8.90;;
70675;SDS011;59069;52.242;20.900;2024-02-21T07:32:49;26.53;;;8.57;;
70675;SDS011;59069;52.242;20.900;2024-02-21T07:35:15;23.92;;;9.63;;
70675;SDS011;59069;52.242;20.900;2024-02-21T07:37:42;25.90;;;9.82;;
70675;SDS011;59069;52.242;20.900;2024-02-21T07:40:14;25.93;;;9.20;;
70675;SDS011;59069;52.242;20.900;2024-02-21T07:42:40;24.98;;;8.73;;
70675;SDS011;59069;52.242;20.900;2024-02-21T07:45:06;20.00;;;8.13;;
70675;SDS011;59069;52.242;20.900;2024-02-21T07:47:32;26.02;;;9.02;;
70675;SDS011;59069;52.242;20.900;2024-02-21T07:49:58;33.20;;;9.90;;
70675;SDS011;59069;52.242;20.900;2024-02-21T07:52:23;32.80;;;10.10;;
70675;SDS011;59069;52.242;20.900;2024-02-21T07:54:49;28.77;;;9.60;;
70675;SDS011;59069;52.242;20.900;2024-02-21T07:57:15;25.37;;;9.00;;
70675;SDS011;59069;52.242;20.900;2024-02-21T07:59:40;29.23;;;9.83;;
70675;SDS011;59069;52.242;20.900;2024-02-21T08:02:05;33.03;;;10.17;;
70675;SDS011;59069;52.242;20.900;2024-02-21T08:04:32;31.92;;;9.95;;
70675;SDS011;59069;52.242;20.900;2024-02-21T08:06:57;30.10;;;10.63;;
70675;SDS011;59069;52.242;20.900;2024-02-21T08:09:26;28.00;;;10.00;;
70675;SDS011;59069;52.242;20.900;2024-02-21T08:11:52;32.65;;;12.10;;
70675;SDS011;59069;52.242;20.900;2024-02-21T08:14:17;32.60;;;11.07;;
70675;SDS011;59069;52.242;20.900;2024-02-21T08:16:43;29.83;;;11.03;;
70675;SDS011;59069;52.242;20.900;2024-02-21T08:19:08;30.40;;;9.90;;
70675;SDS011;59069;52.242;20.900;2024-02-21T08:21:36;27.50;;;10.27;;
70675;SDS011;59069;52.242;20.900;2024-02-21T08:24:01;29.43;;;10.27;;
70675;SDS011;59069;52.242;20.900;2024-02-21T08:26:27;26.67;;;10.70;;
70675;SDS011;59069;52.242;20.900;2024-02-21T08:28:55;32.13;;;10.80;;
70675;SDS011;59069;52.242;20.900;2024-02-21T08:31:23;29.95;;;11.13;;
70675;SDS011;59069;52.242;20.900;2024-02-21T08:33:49;30.13;;;10.48;;
70675;SDS011;59069;52.242;20.900;2024-02-21T08:36:18;32.03;;;10.10;;
70675;SDS011;59069;52.242;20.900;2024-02-21T08:38:44;25.88;;;10.48;;
70675;SDS011;59069;52.242;20.900;2024-02-21T08:41:10;30.07;;;10.17;;
70675;SDS011;59069;52.242;20.900;2024-02-21T08:43:36;32.63;;;10.23;;
70675;SDS011;59069;52.242;20.900;2024-02-21T08:46:01;31.90;;;10.80;;
70675;SDS011;59069;52.242;20.900;2024-02-21T08:48:26;29.47;;;9.73;;
70675;SDS011;59069;52.242;20.900;2024-02-21T08:50:52;22.87;;;9.87;;
70675;SDS011;59069;52.242;20.900;2024-02-21T08:53:19;27.48;;;9.77;;
70675;SDS011;59069;52.242;20.900;2024-02-21T08:55:44;24.55;;;9.05;;
70675;SDS011;59069;52.242;20.900;2024-02-21T08:58:11;27.80;;;9.37;;
70675;SDS011;59069;52.242;20.900;2024-02-21T09:00:37;26.35;;;9.77;;
70675;SDS011;59069;52.242;20.900;2024-02-21T09:03:02;34.10;;;9.13;;
70675;SDS011;59069;52.242;20.900;2024-02-21T09:05:28;24.27;;;9.60;;
70675;SDS011;59069;52.242;20.900;2024-02-21T09:07:54;26.58;;;9.98;;
70675;SDS011;59069;52.242;20.900;2024-02-21T09:10:19;26.30;;;9.57;;
70675;SDS011;59069;52.242;20.900;2024-02-21T09:12:45;26.58;;;10.27;;
70675;SDS011;59069;52.242;20.900;2024-02-21T09:15:11;25.87;;;9.07;;
70675;SDS011;59069;52.242;20.900;2024-02-21T09:17:36;29.48;;;9.45;;
70675;SDS011;59069;52.242;20.900;2024-02-21T09:20:02;28.03;;;9.53;;
70675;SDS011;59069;52.242;20.900;2024-02-21T09:22:28;26.23;;;8.10;;
70675;SDS011;59069;52.242;20.900;2024-02-21T09:24:54;26.47;;;8.87;;
70675;SDS011;59069;52.242;20.900;2024-02-21T09:27:20;22.80;;;9.05;;
70675;SDS011;59069;52.242;20.900;2024-02-21T09:29:45;26.33;;;9.37;;
70675;SDS011;59069;52.242;20.900;2024-02-21T09:32:11;29.67;;;8.80;;
70675;SDS011;59069;52.242;20.900;2024-02-21T09:34:37;26.92;;;9.30;;
70675;SDS011;59069;52.242;20.900;2024-02-21T09:37:02;26.50;;;8.90;;
70675;SDS011;59069;52.242;20.900;2024-02-21T09:39:28;21.87;;;7.97;;
70675;SDS011;59069;52.242;20.900;2024-02-21T09:41:56;25.65;;;8.10;;
70675;SDS011;59069;52.242;20.900;2024-02-21T09:44:24;23.42;;;7.85;;
70675;SDS011;59069;52.242;20.900;2024-02-21T09:49:21;18.98;;;6.75;;
70675;SDS011;59069;52.242;20.900;2024-02-21T09:51:56;25.30;;;8.82;;
70675;SDS011;59069;52.242;20.900;2024-02-21T09:54:22;22.55;;;7.53;;
70675;SDS011;59069;52.242;20.900;2024-02-21T09:56:48;23.57;;;7.20;;
70675;SDS011;59069;52.242;20.900;2024-02-21T09:59:15;22.40;;;7.07;;
70675;SDS011;59069;52.242;20.900;2024-02-21T10:01:42;19.38;;;7.00;;
70675;SDS011;59069;52.242;20.900;2024-02-21T10:04:08;26.67;;;8.57;;
70675;SDS011;59069;52.242;20.900;2024-02-21T10:06:34;20.70;;;7.27;;
70675;SDS011;59069;52.242;20.900;2024-02-21T10:08:59;22.88;;;7.35;;
70675;SDS011;59069;52.242;20.900;2024-02-21T10:11:25;22.30;;;6.50;;
70675;SDS011;59069;52.242;20.900;2024-02-21T10:13:51;23.87;;;7.30;;
70675;SDS011;59069;52.242;20.900;2024-02-21T10:16:27;22.88;;;6.90;;
70675;SDS011;59069;52.242;20.900;2024-02-21T10:18:53;21.10;;;6.83;;
70675;SDS011;59069;52.242;20.900;2024-02-21T10:21:19;19.48;;;7.45;;
70675;SDS011;59069;52.242;20.900;2024-02-21T10:23:46;24.30;;;7.00;;
70675;SDS011;59069;52.242;20.900;2024-02-21T10:26:13;26.23;;;7.72;;
70675;SDS011;59069;52.242;20.900;2024-02-21T10:28:39;22.43;;;7.60;;
70675;SDS011;59069;52.242;20.900;2024-02-21T10:31:07;25.10;;;8.48;;
70675;SDS011;59069;52.242;20.900;2024-02-21T10:33:34;23.08;;;7.22;;
70675;SDS011;59069;52.242;20.900;2024-02-21T10:36:09;24.37;;;6.60;;
70675;SDS011;59069;52.242;20.900;2024-02-21T10:38:36;19.52;;;6.80;;
70675;SDS011;59069;52.242;20.900;2024-02-21T10:41:02;21.10;;;7.50;;
70675;SDS011;59069;52.242;20.900;2024-02-21T10:43:30;23.40;;;7.47;;
70675;SDS011;59069;52.242;20.900;2024-02-21T10:46:03;20.10;;;7.33;;
70675;SDS011;59069;52.242;20.900;2024-02-21T10:48:33;20.48;;;7.70;;
70675;SDS011;59069;52.242;20.900;2024-02-21T10:58:59;24.03;;;8.37;;
70675;SDS011;59069;52.242;20.900;2024-02-21T11:01:26;22.70;;;8.00;;
70675;SDS011;59069;52.242;20.900;2024-02-21T11:03:54;23.35;;;8.63;;
70675;SDS011;59069;52.242;20.900;2024-02-21T11:06:21;24.25;;;8.73;;
70675;SDS011;59069;52.242;20.900;2024-02-21T11:08:47;20.45;;;8.13;;
70675;SDS011;59069;52.242;20.900;2024-02-21T11:11:28;25.93;;;8.80;;
70675;SDS011;59069;52.242;20.900;2024-02-21T11:14:03;21.83;;;9.02;;
70675;SDS011;59069;52.242;20.900;2024-02-21T11:16:39;24.98;;;8.95;;
70675;SDS011;59069;52.242;20.900;2024-02-21T11:19:06;25.67;;;8.65;;
70675;SDS011;59069;52.242;20.900;2024-02-21T11:21:36;24.63;;;9.05;;
70675;SDS011;59069;52.242;20.900;2024-02-21T11:24:03;26.00;;;8.97;;
70675;SDS011;59069;52.242;20.900;2024-02-21T11:26:29;21.70;;;9.43;;
70675;SDS011;59069;52.242;20.900;2024-02-21T11:28:56;24.77;;;9.02;;
70675;SDS011;59069;52.242;20.900;2024-02-21T11:31:22;24.10;;;8.90;;
70675;SDS011;59069;52.242;20.900;2024-02-21T11:33:48;24.43;;;9.10;;
70675;SDS011;59069;52.242;20.900;2024-02-21T11:36:26;26.87;;;8.30;;
70675;SDS011;59069;52.242;20.900;2024-02-21T11:38:52;18.40;;;8.45;;
70675;SDS011;59069;52.242;20.900;2024-02-21T11:41:21;24.80;;;8.93;;
70675;SDS011;59069;52.242;20.900;2024-02-21T11:43:48;26.03;;;9.30;;
70675;SDS011;59069;52.242;20.900;2024-02-21T11:46:15;22.58;;;8.85;;
70675;SDS011;59069;52.242;20.900;2024-02-21T11:48:41;21.27;;;8.80;;
70675;SDS011;59069;52.242;20.900;2024-02-21T11:51:09;23.27;;;8.90;;
70675;SDS011;59069;52.242;20.900;2024-02-21T11:53:34;23.13;;;7.80;;
70675;SDS011;59069;52.242;20.900;2024-02-21T11:56:00;23.90;;;9.37;;
70675;SDS011;59069;52.242;20.900;2024-02-21T11:58:25;25.80;;;9.67;;
70675;SDS011;59069;52.242;20.900;2024-02-21T12:00:51;26.27;;;9.07;;
70675;SDS011;59069;52.242;20.900;2024-02-21T12:03:17;23.70;;;9.63;;
70675;SDS011;59069;52.242;20.900;2024-02-21T12:05:42;24.85;;;9.32;;
70675;SDS011;59069;52.242;20.900;2024-02-21T12:08:08;23.97;;;9.17;;
70675;SDS011;59069;52.242;20.900;2024-02-21T12:10:34;27.37;;;10.00;;
70675;SDS011;59069;52.242;20.900;2024-02-21T12:13:10;27.00;;;10.38;;
70675;SDS011;59069;52.242;20.900;2024-02-21T12:15:35;28.30;;;10.63;;
70675;SDS011;59069;52.242;20.900;2024-02-21T12:18:01;27.37;;;10.33;;
70675;SDS011;59069;52.242;20.900;2024-02-21T12:20:26;27.20;;;10.07;;
70675;SDS011;59069;52.242;20.900;2024-02-21T12:22:52;24.07;;;10.57;;
70675;SDS011;59069;52.242;20.900;2024-02-21T12:25:19;27.42;;;10.40;;
70675;SDS011;59069;52.242;20.900;2024-02-21T12:27:47;26.13;;;10.02;;
70675;SDS011;59069;52.242;20.900;2024-02-21T12:30:14;27.98;;;10.20;;
70675;SDS011;59069;52.242;20.900;2024-02-21T12:32:39;23.73;;;10.13;;
70675;SDS011;59069;52.242;20.900;2024-02-21T12:35:06;29.90;;;9.68;;
70675;SDS011;59069;52.242;20.900;2024-02-21T12:37:31;22.83;;;9.53;;
70675;SDS011;59069;52.242;20.900;2024-02-21T12:39:58;26.20;;;9.98;;
70675;SDS011;59069;52.242;20.900;2024-02-21T12:42:23;25.10;;;10.07;;
70675;SDS011;59069;52.242;20.900;2024-02-21T12:44:50;26.83;;;9.45;;
70675;SDS011;59069;52.242;20.900;2024-02-21T12:47:17;27.85;;;9.88;;
70675;SDS011;59069;52.242;20.900;2024-02-21T12:49:44;24.50;;;9.63;;
70675;SDS011;59069;52.242;20.900;2024-02-21T12:52:10;22.77;;;9.87;;
70675;SDS011;59069;52.242;20.900;2024-02-21T12:54:36;23.63;;;9.15;;
70675;SDS011;59069;52.242;20.900;2024-02-21T12:57:01;25.47;;;9.17;;
70675;SDS011;59069;52.242;20.900;2024-02-21T12:59:28;24.35;;;9.85;;
70675;SDS011;59069;52.242;20.900;2024-02-21T13:01:54;24.98;;;9.27;;
70675;SDS011;59069;52.242;20.900;2024-02-21T13:04:19;22.23;;;8.67;;
70675;SDS011;59069;52.242;20.900;2024-02-21T13:06:46;25.80;;;9.00;;
70675;SDS011;59069;52.242;20.900;2024-02-21T13:09:12;26.50;;;8.47;;
70675;SDS011;59069;52.242;20.900;2024-02-21T13:11:38;24.23;;;9.20;;
70675;SDS011;59069;52.242;20.900;2024-02-21T13:14:05;20.75;;;8.90;;
70675;SDS011;59069;52.242;20.900;2024-02-21T13:16:31;23.30;;;8.60;;
70675;SDS011;59069;52.242;20.900;2024-02-21T13:18:56;19.77;;;9.00;;
70675;SDS011;59069;52.242;20.900;2024-02-21T13:21:22;25.60;;;9.63;;
70675;SDS011;59069;52.242;20.900;2024-02-21T13:23:47;28.30;;;10.10;;
70675;SDS011;59069;52.242;20.900;2024-02-21T13:26:13;26.80;;;9.80;;
70675;SDS011;59069;52.242;20.900;2024-02-21T13:28:39;23.40;;;10.17;;
70675;SDS011;59069;52.242;20.900;2024-02-21T13:31:04;20.55;;;9.30;;
70675;SDS011;59069;52.242;20.900;2024-02-21T13:33:29;23.97;;;9.53;;
70675;SDS011;59069;52.242;20.900;2024-02-21T13:35:55;24.00;;;8.90;;
70675;SDS011;59069;52.242;20.900;2024-02-21T13:38:20;23.73;;;9.23;;
70675;SDS011;59069;52.242;20.900;2024-02-21T13:40:46;23.20;;;9.27;;
70675;SDS011;59069;52.242;20.900;2024-02-21T13:43:11;24.70;;;9.73;;
70675;SDS011;59069;52.242;20.900;2024-02-21T13:45:37;23.90;;;9.35;;
70675;SDS011;59069;52.242;20.900;2024-02-21T13:48:03;19.30;;;9.03;;
70675;SDS011;59069;52.242;20.900;2024-02-21T13:50:31;24.00;;;8.93;;
70675;SDS011;59069;52.242;20.900;2024-02-21T13:52:57;19.20;;;8.17;;
70675;SDS011;59069;52.242;20.900;2024-02-21T13:55:22;27.93;;;9.27;;
70675;SDS011;59069;52.242;20.900;2024-02-21T13:57:51;23.33;;;8.68;;
70675;SDS011;59069;52.242;20.900;2024-02-21T14:00:16;25.83;;;9.60;;
70675;SDS011;59069;52.242;20.900;2024-02-21T14:02:43;20.40;;;8.02;;
70675;SDS011;59069;52.242;20.900;2024-02-21T14:05:09;28.10;;;9.07;;
70675;SDS011;59069;52.242;20.900;2024-02-21T14:07:34;23.92;;;8.30;;
70675;SDS011;59069;52.242;20.900;2024-02-21T14:10:00;27.00;;;7.97;;
70675;SDS011;59069;52.242;20.900;2024-02-21T14:12:25;21.60;;;7.97;;
70675;SDS011;59069;52.242;20.900;2024-02-21T14:14:50;20.33;;;8.00;;
70675;SDS011;59069;52.242;20.900;2024-02-21T14:17:17;21.40;;;7.53;;
70675;SDS011;59069;52.242;20.900;2024-02-21T14:19:42;19.48;;;7.47;;
70675;SDS011;59069;52.242;20.900;2024-02-21T14:22:07;22.83;;;8.37;;
70675;SDS011;59069;52.242;20.900;2024-02-21T14:24:33;25.83;;;7.80;;